.
WxDataArchive / Data Records for 2012-07-31
2012-07-30 July 2012 2012-08-01

Data Records for Tuesday, 31 July 2012

Time	Temp	Chill	HIndex	Humid	Dewpt	 Wind 	HiWind	WindDir	Rain 	Barom 
-----	----	-----	------	-----	-----	------	------	-------	-----	----- 
00:00	73.9	73.9	73.9	72	64.3	0	0	---	0.00	29.895 
00:05	73.7	73.7	73.7	73	64.5	0	0	---	0.00	29.895 
00:10	73.5	73.5	73.5	73	64.3	0	0	---	0.00	29.895 
00:15	73.3	73.3	73.3	73	64.1	0	0	---	0.00	29.891 
00:20	73.2	73.2	73.2	74	64.4	0	0	---	0.00	29.891 
00:25	73.0	73.0	73.0	74	64.2	0	0	---	0.00	29.891 
00:30	73.0	73.0	73.0	74	64.2	0	0	---	0.00	29.885 
00:35	72.8	72.8	72.8	74	64.0	0	0	---	0.00	29.885 
00:40	72.8	72.8	72.8	74	64.0	0	0	---	0.00	29.885 
00:45	72.8	72.8	72.8	74	64.0	0	0	---	0.00	29.876 
00:50	72.8	72.8	72.8	74	64.0	0	0	---	0.00	29.876 
00:55	72.8	72.8	72.8	73	63.6	0	0	---	0.00	29.876 
01:00	72.8	72.8	72.8	73	63.6	0	0	---	0.00	29.873 
01:05	72.8	72.8	72.8	73	63.6	0	0	---	0.00	29.873 
01:10	72.8	72.8	72.8	72	63.2	0	0	---	0.00	29.873 
01:15	73.0	73.0	73.0	71	63.0	0	0	---	0.00	29.866 
01:20	73.0	73.0	73.0	71	63.0	0	0	---	0.00	29.866 
01:25	73.0	73.0	73.0	71	63.0	0	0	---	0.00	29.866 
01:30	73.0	73.0	73.0	70	62.6	0	0	---	0.00	29.871 
01:35	73.0	73.0	73.0	70	62.6	0	0	---	0.00	29.871 
01:40	73.0	73.0	73.0	70	62.6	0	0	---	0.00	29.871 
01:45	73.0	73.0	73.0	70	62.6	0	0	---	0.00	29.869 
01:50	72.8	72.8	72.8	70	62.4	0	0	---	0.00	29.869 
01:55	72.8	72.8	72.8	70	62.4	0	0	---	0.00	29.869 
02:00	72.7	72.7	72.7	71	62.7	0	0	---	0.00	29.869 
02:05	72.7	72.7	72.7	71	62.7	0	0	---	0.00	29.869 
02:10	72.5	72.5	72.5	71	62.5	0	0	---	0.00	29.869 
02:15	72.3	72.3	72.3	71	62.4	0	0	---	0.00	29.870 
02:20	72.3	72.3	72.3	72	62.8	0	0	---	0.00	29.870 
02:25	72.1	72.1	72.1	72	62.6	0	0	---	0.00	29.870 
02:30	72.0	72.0	72.0	73	62.9	0	0	---	0.00	29.874 
02:35	71.6	71.6	71.6	73	62.5	0	0	---	0.00	29.874 
02:40	71.6	71.6	71.6	73	62.5	0	0	---	0.00	29.874 
02:45	71.5	71.5	71.5	74	62.8	0	0	---	0.00	29.876 
02:50	71.3	71.3	71.3	74	62.6	0	0	---	0.00	29.876 
02:55	71.1	71.1	71.1	74	62.4	0	0	---	0.00	29.876 
03:00	71.1	71.1	71.1	75	62.8	0	0	---	0.00	29.874 
03:05	71.1	71.1	71.1	75	62.8	0	0	---	0.00	29.874 
03:10	71.1	71.1	71.1	75	62.8	0	0	---	0.00	29.874 
03:15	71.1	71.1	71.1	74	62.4	0	0	---	0.00	29.868 
03:20	71.3	71.3	71.3	74	62.6	0	0	---	0.00	29.868 
03:25	71.3	71.3	71.3	73	62.2	0	0	---	0.00	29.868 
03:30	71.5	71.5	71.5	73	62.4	0	0	---	0.00	29.861 
03:35	71.6	71.6	71.6	73	62.5	0	1	22	0.00	29.861 
03:40	71.6	71.6	71.6	72	62.1	0	0	---	0.00	29.861 
03:45	71.6	71.6	71.6	72	62.1	0	0	---	0.00	29.866 
03:50	71.6	71.6	71.6	72	62.1	0	0	---	0.00	29.866 
03:55	71.6	71.6	71.6	72	62.1	0	0	---	0.00	29.866 
04:00	71.6	71.6	71.6	72	62.1	0	0	---	0.00	29.875 
04:05	71.6	71.6	71.6	72	62.1	0	0	---	0.00	29.875 
04:10	71.6	71.6	71.6	73	62.5	0	0	---	0.00	29.875 
04:15	71.5	71.5	71.5	73	62.4	0	0	---	0.00	29.878 
04:20	71.3	71.3	71.3	73	62.2	0	0	---	0.00	29.878 
04:25	71.3	71.3	71.3	73	62.2	0	0	---	0.00	29.878 
04:30	71.1	71.1	71.1	73	62.0	0	0	---	0.00	29.880 
04:35	71.1	71.1	71.1	74	62.4	0	0	---	0.00	29.880 
04:40	70.9	70.9	70.9	74	62.2	0	0	---	0.00	29.880 
04:45	70.9	70.9	70.9	74	62.2	0	0	---	0.00	29.876 
04:50	70.8	70.8	70.8	74	62.1	0	0	---	0.00	29.876 
04:55	70.6	70.6	70.6	74	61.9	0	0	---	0.00	29.876 
05:00	70.6	70.6	70.6	74	61.9	0	0	---	0.00	29.875 
05:05	70.6	70.6	70.6	75	62.3	0	0	---	0.00	29.875 
05:10	70.6	70.6	70.6	75	62.3	0	0	---	0.00	29.875 
05:15	70.6	70.6	70.6	75	62.3	0	0	---	0.00	29.879 
05:20	70.8	70.8	70.8	75	62.5	0	1	22	0.00	29.879 
05:25	71.5	71.5	71.5	70	61.2	2	9	292	0.00	29.879 
05:30	71.8	71.8	71.8	67	60.2	1	5	112	0.00	29.926 
05:35	72.0	72.0	72.0	64	59.1	1	7	338	0.00	29.926 
05:40	72.1	72.1	72.1	63	58.8	1	6	0	0.00	29.926 
05:45	72.1	72.1	72.1	65	59.7	0	6	0	0.00	29.925 
05:50	71.6	71.6	71.6	65	59.2	1	9	90	0.00	29.925 
05:55	70.1	70.1	70.1	70	59.8	1	4	90	0.01	29.925 
06:00	68.9	68.9	68.9	75	60.6	1	7	90	0.02	29.913 
06:05	68.1	68.1	68.1	78	61.0	0	3	90	0.00	29.913 
06:10	67.6	67.6	67.6	79	60.8	1	3	90	0.00	29.913 
06:15	67.3	67.3	67.3	80	60.9	0	1	90	0.00	29.925 
06:20	66.9	66.9	66.9	81	60.9	0	1	90	0.00	29.925 
06:25	66.8	66.8	66.8	81	60.8	0	1	90	0.00	29.925 
06:30	66.6	66.6	66.6	82	60.9	0	1	90	0.00	29.930 
06:35	66.4	66.4	66.4	82	60.7	0	0	---	0.00	29.930 
06:40	66.6	66.6	66.6	82	60.9	2	6	292	0.00	29.930 
06:45	66.9	66.9	66.9	80	60.5	2	6	315	0.00	29.964 
06:50	67.1	67.1	67.1	80	60.7	1	3	270	0.00	29.964 
06:55	67.1	67.1	67.1	79	60.4	1	3	270	0.00	29.964 
07:00	67.3	67.3	67.3	80	60.9	1	2	270	0.01	29.975 
07:05	66.8	66.8	66.8	82	61.1	2	4	270	0.02	29.975 
07:10	66.0	66.0	66.0	84	61.0	1	6	270	0.01	29.975 
07:15	65.5	65.5	65.5	86	61.2	1	3	270	0.00	29.954 
07:20	65.2	65.2	65.2	88	61.6	1	3	292	0.01	29.954 
07:25	65.0	65.0	65.0	88	61.4	0	1	292	0.02	29.954 
07:30	64.8	64.8	64.8	89	61.5	0	0	---	0.02	29.934 
07:35	64.8	64.8	64.8	90	61.8	0	1	292	0.00	29.934 
07:40	64.8	64.8	64.8	90	61.8	0	0	---	0.01	29.934 
07:45	64.8	64.8	64.8	91	62.1	0	1	292	0.00	29.913 
07:50	65.0	65.0	65.0	91	62.3	0	2	292	0.01	29.913 
07:55	64.8	64.8	64.8	92	62.4	0	1	292	0.00	29.913 
08:00	64.8	64.8	64.8	92	62.4	1	4	45	0.00	29.891 
08:05	64.7	64.7	64.7	92	62.3	1	5	90	0.00	29.891 
08:10	64.7	64.7	64.7	92	62.3	0	2	90	0.00	29.891 
08:15	64.7	64.7	64.7	92	62.3	0	2	90	0.00	29.870 
08:20	64.8	64.8	64.8	92	62.4	0	2	90	0.00	29.870 
08:25	64.8	64.8	64.8	92	62.4	0	3	90	0.00	29.870 
08:30	65.0	65.0	65.0	92	62.6	1	3	90	0.00	29.887 
08:35	65.0	65.0	65.0	92	62.6	0	3	270	0.00	29.887 
08:40	65.0	65.0	65.0	92	62.6	1	4	248	0.00	29.887 
08:45	65.2	65.2	65.2	92	62.8	1	4	292	0.00	29.874 
08:50	65.3	65.3	65.3	92	62.9	1	3	248	0.00	29.874 
08:55	65.5	65.5	65.5	92	63.1	1	3	248	0.00	29.874 
09:00	65.8	65.8	65.8	91	63.1	1	3	112	0.00	29.865 
09:05	66.0	66.0	66.0	91	63.3	0	2	112	0.00	29.865 
09:10	66.0	66.0	66.0	90	63.0	0	1	112	0.00	29.865 
09:15	66.1	66.1	66.1	91	63.4	0	2	112	0.00	29.888 
09:20	66.3	66.3	66.3	91	63.6	0	2	112	0.00	29.888 
09:25	66.6	66.6	66.6	91	63.9	0	2	112	0.00	29.888 
09:30	66.6	66.6	66.6	91	63.9	0	1	112	0.00	29.875 
09:35	66.9	66.9	66.9	91	64.2	0	1	112	0.00	29.875 
09:40	67.3	67.3	67.3	91	64.6	0	1	112	0.00	29.875 
09:45	67.6	67.6	67.6	91	64.9	0	1	112	0.00	29.873 
09:50	67.8	67.8	67.8	91	65.1	0	1	112	0.00	29.873 
09:55	67.9	67.9	67.9	90	64.9	0	3	112	0.00	29.873 
10:00	68.1	68.1	68.1	89	64.7	0	2	112	0.00	29.871 
10:05	69.1	69.1	69.1	90	66.0	0	1	112	0.00	29.871 
10:10	69.8	69.8	69.8	88	66.1	0	2	112	0.00	29.871 
10:15	69.9	69.9	69.9	85	65.2	0	1	112	0.00	29.865 
10:20	69.9	69.9	69.9	82	64.1	1	3	112	0.00	29.865 
10:25	70.4	70.4	70.4	83	65.0	0	1	112	0.00	29.865 
10:30	71.1	71.1	71.1	82	65.3	0	1	112	0.00	29.857 
10:35	71.6	71.6	71.6	81	65.4	0	1	112	0.00	29.857 
10:40	72.0	72.0	72.0	78	64.8	0	1	112	0.00	29.857 
10:45	72.8	72.8	72.8	76	64.8	0	1	112	0.00	29.853 
10:50	73.5	73.5	73.5	74	64.7	1	2	112	0.00	29.853 
10:55	74.2	74.2	74.2	74	65.4	0	2	112	0.00	29.853 
11:00	74.6	74.6	74.6	71	64.6	1	3	315	0.00	29.852 
11:05	75.3	75.3	76.9	71	65.2	1	3	315	0.00	29.852 
11:10	75.8	75.8	77.5	69	64.9	0	1	315	0.00	29.852 
11:15	76.5	76.5	78.3	66	64.3	1	3	315	0.00	29.852 
11:20	77.0	77.0	78.8	62	63.0	1	2	315	0.00	29.852 
11:25	77.4	77.4	79.2	65	64.7	1	3	315	0.00	29.852 
11:30	78.1	78.1	79.9	62	64.0	1	3	315	0.00	29.861 
11:35	78.5	78.5	80.1	59	63.0	2	4	315	0.00	29.861 
11:40	78.8	78.8	80.3	57	62.3	2	3	315	0.00	29.861 
11:45	79.6	79.6	81.2	58	63.5	1	3	315	0.00	29.865 
11:50	80.5	80.5	82.1	57	63.8	2	4	315	0.00	29.865 
11:55	81.1	81.1	82.3	54	62.9	2	4	292	0.00	29.865 
12:00	81.6	81.6	82.9	54	63.3	1	3	292	0.00	29.864 
12:05	82.0	82.0	82.6	49	60.9	2	5	292	0.00	29.864 
12:10	82.2	82.2	83.0	50	61.7	3	6	270	0.00	29.864 
12:15	82.4	82.4	83.2	50	61.9	3	5	270	0.00	29.864 
12:20	82.6	82.6	83.3	49	61.5	2	5	270	0.00	29.864 
12:25	83.2	83.2	84.3	51	63.2	1	3	315	0.00	29.864 
12:30	83.4	83.4	84.2	49	62.2	3	5	315	0.00	29.863 
12:35	83.8	83.8	84.9	50	63.1	2	5	270	0.00	29.863 
12:40	84.0	84.0	84.9	49	62.8	2	5	270	0.00	29.863 
12:45	84.1	84.1	85.3	50	63.4	2	4	270	0.00	29.862 
12:50	84.1	84.1	85.7	52	64.5	3	5	270	0.00	29.862 
12:55	84.0	84.0	85.3	51	63.9	3	5	270	0.00	29.862 
13:00	84.3	84.3	86.0	52	64.7	2	4	270	0.00	29.863 
13:05	84.3	84.3	86.2	53	65.3	3	6	270	0.00	29.863 
13:10	84.3	84.3	86.0	52	64.7	3	10	315	0.00	29.863 
13:15	84.1	84.1	85.7	52	64.5	3	5	315	0.00	29.861 
13:20	84.1	84.1	85.9	53	65.1	1	3	315	0.00	29.861 
13:25	84.5	84.5	86.7	54	66.0	2	5	270	0.00	29.861 
13:30	84.3	84.3	86.5	54	65.8	2	6	270	0.00	29.859 
13:35	84.7	84.7	86.5	52	65.1	2	5	270	0.00	29.859 
13:40	85.3	85.3	86.9	50	64.5	3	6	292	0.00	29.859 
13:45	85.5	85.5	87.4	51	65.3	2	4	270	0.00	29.859 
13:50	85.3	85.3	86.9	50	64.5	3	7	315	0.00	29.859 
13:55	84.9	84.9	86.8	52	65.3	3	5	270	0.00	29.859 
14:00	84.9	84.9	86.6	51	64.7	3	6	270	0.00	29.858 
14:05	84.5	84.5	86.3	52	64.9	2	5	292	0.00	29.858 
14:10	84.3	84.3	86.2	53	65.3	3	6	270	0.00	29.858 
14:15	84.1	84.1	85.9	53	65.1	3	5	270	0.00	29.862 
14:20	83.6	83.6	85.7	55	65.7	2	4	315	0.00	29.862 
14:25	83.2	83.2	85.3	56	65.8	2	5	270	0.00	29.862 
14:30	83.8	83.8	86.4	57	66.9	1	3	292	0.00	29.858 
14:35	83.8	83.8	86.2	56	66.4	2	5	292	0.00	29.858 
14:40	83.8	83.8	86.2	56	66.4	2	4	315	0.00	29.858 
14:45	83.8	83.8	86.4	57	66.9	2	5	315	0.00	29.856 
14:50	84.5	84.5	87.0	55	66.5	2	5	315	0.00	29.856 
14:55	85.3	85.3	88.2	55	67.3	3	5	270	0.00	29.856 
15:00	85.5	85.5	88.3	54	66.9	4	7	270	0.00	29.848 
15:05	85.3	85.3	88.0	54	66.7	2	5	270	0.00	29.848 
15:10	85.3	85.3	88.2	55	67.3	3	6	270	0.00	29.848 
15:15	85.7	85.7	88.3	53	66.6	3	7	270	0.00	29.846 
15:20	85.7	85.7	88.6	54	67.1	2	5	270	0.00	29.846 
15:25	85.1	85.1	87.7	54	66.6	3	5	270	0.00	29.846 
15:30	85.1	85.1	88.2	56	67.6	2	7	315	0.00	29.847 
15:35	85.1	85.1	87.7	54	66.6	2	7	315	0.00	29.847 
15:40	85.1	85.1	87.9	55	67.1	3	6	292	0.00	29.847 
15:45	84.7	84.7	87.3	55	66.7	2	4	292	0.00	29.849 
15:50	84.7	84.7	87.6	56	67.2	2	5	338	0.00	29.849 
15:55	84.7	84.7	87.3	55	66.7	2	5	292	0.00	29.849 
16:00	84.9	84.9	87.3	54	66.4	2	5	292	0.00	29.850 
16:05	85.3	85.3	88.2	55	67.3	3	7	270	0.00	29.850 
16:10	85.7	85.7	88.6	54	67.1	3	7	270	0.00	29.850 
16:15	85.9	85.9	88.9	54	67.3	3	5	292	0.00	29.850 
16:20	85.1	85.1	87.7	54	66.6	2	5	292	0.00	29.850 
16:25	85.3	85.3	88.0	54	66.7	2	4	292	0.00	29.850 
16:30	85.7	85.7	88.0	52	66.0	2	5	338	0.00	29.849 
16:35	85.7	85.7	88.3	53	66.6	3	6	292	0.00	29.849 
16:40	85.9	85.9	88.9	54	67.3	2	4	292	0.00	29.849 
16:45	85.7	85.7	88.3	53	66.6	1	4	292	0.00	29.848 
16:50	85.5	85.5	87.4	51	65.3	1	3	292	0.00	29.848 
16:55	85.9	85.9	88.3	52	66.2	1	3	292	0.00	29.848 
17:00	86.1	86.1	88.9	53	66.9	1	3	315	0.00	29.846 
17:05	86.5	86.5	89.6	53	67.3	1	5	315	0.00	29.846 
17:10	86.5	86.5	89.3	52	66.7	1	3	292	0.00	29.846 
17:15	85.7	85.7	88.3	53	66.6	1	4	292	0.00	29.847 
17:20	84.7	84.7	87.3	55	66.7	1	6	292	0.00	29.847 
17:25	84.7	84.7	87.0	54	66.2	1	5	292	0.00	29.847 
17:30	84.1	84.1	85.9	53	65.1	1	5	270	0.00	29.846 
17:35	83.6	83.6	85.7	55	65.7	0	2	270	0.00	29.846 
17:40	83.8	83.8	86.2	56	66.4	1	2	270	0.00	29.846 
17:45	84.1	84.1	86.4	55	66.2	1	4	270	0.00	29.840 
17:50	84.5	84.5	86.5	53	65.5	1	3	292	0.00	29.840 
17:55	85.1	85.1	87.4	53	66.0	2	4	270	0.00	29.840 
18:00	85.5	85.5	87.7	52	65.8	1	5	315	0.00	29.837 
18:05	85.5	85.5	87.7	52	65.8	1	4	315	0.00	29.837 
18:10	85.5	85.5	87.7	52	65.8	1	4	315	0.00	29.837 
18:15	85.7	85.7	87.4	50	64.9	1	4	270	0.00	29.845 
18:20	85.1	85.1	86.6	50	64.3	1	4	315	0.00	29.845 
18:25	84.3	84.3	86.0	52	64.7	1	4	292	0.00	29.845 
18:30	84.3	84.3	86.2	53	65.3	1	3	315	0.00	29.845 
18:35	84.7	84.7	86.3	51	64.5	1	4	338	0.00	29.845 
18:40	85.1	85.1	86.9	51	64.9	2	5	270	0.00	29.845 
18:45	85.1	85.1	86.6	50	64.3	2	5	292	0.00	29.839 
18:50	85.1	85.1	86.4	49	63.8	1	4	292	0.00	29.839 
18:55	85.3	85.3	87.1	51	65.1	1	4	292	0.00	29.839 
19:00	85.1	85.1	86.4	49	63.8	1	4	292	0.00	29.839 
19:05	84.9	84.9	86.3	50	64.2	2	6	292	0.00	29.839 
19:10	84.9	84.9	86.3	50	64.2	2	5	315	0.00	29.839 
19:15	84.9	84.9	86.3	50	64.2	1	3	292	0.00	29.837 
19:20	84.7	84.7	85.8	49	63.4	2	5	270	0.00	29.837 
19:25	84.5	84.5	85.8	50	63.8	1	4	270	0.00	29.837 
19:30	84.5	84.5	85.8	50	63.8	1	3	270	0.00	29.837 
19:35	84.3	84.3	86.0	52	64.7	1	3	270	0.00	29.837 
19:40	84.1	84.1	86.2	54	65.6	0	2	270	0.00	29.837 
19:45	84.0	84.0	85.8	53	65.0	0	3	270	0.00	29.838 
19:50	83.8	83.8	85.3	52	64.3	1	4	270	0.00	29.838 
19:55	83.6	83.6	85.0	52	64.1	1	2	270	0.00	29.838 
20:00	83.4	83.4	85.0	53	64.4	1	4	270	0.00	29.840 
20:05	83.2	83.2	84.7	53	64.3	1	2	270	0.00	29.840 
20:10	82.8	82.8	84.4	54	64.4	0	2	270	0.00	29.840 
20:15	82.4	82.4	84.1	55	64.6	0	4	270	0.00	29.838 
20:20	82.0	82.0	83.7	56	64.7	0	2	270	0.00	29.838 
20:25	81.8	81.8	83.5	56	64.5	1	4	270	0.00	29.838 
20:30	81.4	81.4	82.7	54	63.1	1	3	270	0.00	29.839 
20:35	81.2	81.2	82.5	54	62.9	1	2	270	0.00	29.839 
20:40	81.1	81.1	82.3	54	62.9	1	5	292	0.00	29.839 
20:45	80.7	80.7	81.9	54	62.5	1	2	292	0.00	29.842 
20:50	80.5	80.5	81.7	54	62.3	1	2	292	0.00	29.842 
20:55	80.3	80.3	81.6	55	62.6	0	2	292	0.00	29.842 
21:00	79.9	79.9	81.2	55	62.3	0	2	292	0.00	29.842 
21:05	79.6	79.6	81.0	56	62.5	0	2	292	0.00	29.842 
21:10	79.4	79.4	80.8	56	62.3	0	1	292	0.00	29.842 
21:15	79.0	79.0	80.5	57	62.4	0	1	292	0.00	29.848 
21:20	78.8	78.8	80.3	58	62.8	0	1	292	0.00	29.848 
21:25	78.5	78.5	80.0	58	62.5	0	2	292	0.00	29.848 
21:30	78.1	78.1	79.7	59	62.6	0	1	292	0.00	29.855 
21:35	77.9	77.9	79.6	60	62.9	0	2	292	0.00	29.855 
21:40	77.7	77.7	79.4	60	62.7	1	2	292	0.00	29.855 
21:45	77.4	77.4	79.1	61	62.9	0	1	292	0.00	29.857 
21:50	77.2	77.2	79.0	61	62.7	0	1	292	0.00	29.857 
21:55	77.0	77.0	78.8	62	63.0	0	1	292	0.00	29.857 
22:00	76.8	76.8	78.6	62	62.8	0	2	292	0.00	29.869 
22:05	76.7	76.7	78.5	62	62.7	0	1	292	0.00	29.869 
22:10	76.5	76.5	78.4	62	62.5	0	1	292	0.00	29.869 
22:15	76.3	76.3	78.2	63	62.8	0	1	292	0.00	29.865 
22:20	76.1	76.1	78.0	63	62.6	0	1	292	0.00	29.865 
22:25	75.8	75.8	77.7	64	62.7	0	1	292	0.00	29.865 
22:30	75.6	75.6	77.6	64	62.5	0	3	292	0.00	29.876 
22:35	75.4	75.4	77.4	65	62.8	0	1	292	0.00	29.876 
22:40	75.3	75.3	77.3	65	62.7	0	3	292	0.00	29.876 
22:45	75.1	75.1	77.1	65	62.5	0	2	292	0.00	29.883 
22:50	74.9	74.9	74.9	65	62.3	0	1	292	0.00	29.883 
22:55	74.7	74.7	74.7	66	62.6	0	2	292	0.00	29.883 
23:00	74.6	74.6	74.6	66	62.5	0	1	292	0.00	29.883 
23:05	74.4	74.4	74.4	67	62.7	0	1	292	0.00	29.883 
23:10	74.2	74.2	74.2	67	62.5	0	1	292	0.00	29.883 
23:15	74.0	74.0	74.0	68	62.8	0	1	292	0.00	29.879 
23:20	73.7	73.7	73.7	69	62.9	0	1	292	0.00	29.879 
23:25	73.5	73.5	73.5	69	62.7	0	1	292	0.00	29.879 
23:30	73.3	73.3	73.3	70	62.9	0	0	---	0.00	29.880 
23:35	73.2	73.2	73.2	70	62.8	0	0	---	0.00	29.880 
23:40	73.0	73.0	73.0	71	63.0	0	1	292	0.00	29.880 
23:45	72.8	72.8	72.8	71	62.8	0	0	---	0.00	29.881 
23:50	72.7	72.7	72.7	72	63.1	0	1	292	0.00	29.881 
23:55	72.5	72.5	72.5	73	63.3	0	1	292	0.00	29.881 

CoCoRaHS
IN-AL-39
A2 Web Hosting
Creative Commons License
GoDaddy
search engine by freefind advanced

loaded 2018-11-12 20:17:59 • last modified 2010-11-18 10:43:29
Privacy PolicyDisclaimer
• wx.awcolley.com is powered by PmWiki v.2002016 •
• all content (unless otherwise noted) © 2018 A W Colley